Etretat — FIDP — position and weather

sailwx.info

Track history (hours):
 
Tides and Currents Weather Stations Pressure Air Temp Water Temp Dewpoint Dewpoint Depression Visibility Wind Speed Wind Dir Waves Ship Positions

Etretat

Last reported at 2016-Feb-08 16:33 UTC. Time now 2016-Feb-08 17:02 UTC.
Position N 49°29' E 000°07'.

Length 187 m; draft 6 m.

Type: Passenger vessel. MMSI: 228022900.

Date/timePositionNaut miles runAvg speedWind from/ knotsBaromVisibWave heightAir tempDewpointWater temp
2016-Feb-08 16:33N 49°29' E 000°07'0 0.0
2016-Feb-08 15:33N 49°29' E 000°07'0 0.0
2016-Feb-08 14:33N 49°29' E 000°07'0 0.0
2016-Feb-08 13:34N 49°29' E 000°07'0 0.0
2016-Feb-08 12:33N 49°29' E 000°07'0 0.0
2016-Feb-08 11:34N 49°29' E 000°07'0 0.0
2016-Feb-08 10:33N 49°29' E 000°07'0 0.0
2016-Feb-08 09:33N 49°29' E 000°07'0 0.0
2016-Feb-08 08:33N 49°29' E 000°07'0 0.0
2016-Feb-08 07:34N 49°29' E 000°07'8 8.3
2016-Feb-08 06:34N 49°35' W 000°03'1313.2
2016-Feb-08 05:34N 49°46' W 000°14'5713.6
2016-Feb-08 01:24N 50°30' W 001°10'1012.4
2016-Feb-08 00:34N 50°39' W 001°03'10 9.9
2016-Feb-07 23:33N 50°49' W 001°06'0 0.0
2016-Feb-07 22:33N 50°49' W 001°06'0 0.1
2016-Feb-07 21:34N 50°49' W 001°06'1010.2
2016-Feb-07 20:34N 50°40' W 000°57'6320.1
2016-Feb-07 17:26N 49°41' W 000°24'1820.9
2016-Feb-07 16:34N 49°30' W 000°01'5 5.4
2016-Feb-07 15:33N 49°29' E 000°07'0 0.0
2016-Feb-07 14:33N 49°29' E 000°07'0 0.0
2016-Feb-07 13:33N 49°29' E 000°07'0 0.0
2016-Feb-07 12:33N 49°29' E 000°07'0 0.0
2016-Feb-07 11:33N 49°29' E 000°07'0 0.0
2016-Feb-07 10:33N 49°29' E 000°07'0 0.0
2016-Feb-07 09:33N 49°29' E 000°07'0 0.0
2016-Feb-07 08:33N 49°29' E 000°07'0 0.0
2016-Feb-07 07:33N 49°29' E 000°07'7 7.2
2016-Feb-07 06:33N 49°34' W 000°02'1413.6
2016-Feb-07 05:33N 49°45' W 000°13'5211.7
2016-Feb-07 01:07N 50°26' W 001°03'713.3
2016-Feb-07 00:34N 50°33' W 001°08'1211.7
2016-Feb-06 23:33N 50°44' W 001°05'4 4.2
2016-Feb-06 22:33N 50°49' W 001°06'0 0.0
2016-Feb-06 21:33N 50°49' W 001°06'1010.4
2016-Feb-06 20:33N 50°40' W 000°56'5718.9
2016-Feb-06 17:33N 49°50' W 000°14'2121.5
2016-Feb-06 16:33N 49°31' E 000°01'4 4.3
2016-Feb-06 15:33N 49°29' E 000°07'0 0.0
2016-Feb-06 14:33N 49°29' E 000°07'0 0.0
2016-Feb-06 13:33N 49°29' E 000°07'0 0.0
2016-Feb-06 12:33N 49°29' E 000°07'0 0.0
2016-Feb-06 11:33N 49°29' E 000°07'0 0.0
2016-Feb-06 10:33N 49°29' E 000°07'0 0.0
2016-Feb-06 09:33N 49°29' E 000°07'0 0.0
2016-Feb-06 08:33N 49°29' E 000°07'0 0.0
2016-Feb-06 07:33N 49°29' E 000°07'9 8.8
2016-Feb-06 06:34N 49°35' W 000°03'1212.4
2016-Feb-06 05:33N 49°46' W 000°13'4710.9
2016-Feb-06 01:11N 50°28' W 000°46'812.7
2016-Feb-06 00:33N 50°35' W 000°52'1212.5
2016-Feb-05 23:34N 50°45' W 001°05'4 4.0
2016-Feb-05 22:33N 50°49' W 001°06'0 0.0
2016-Feb-05 21:33N 50°49' W 001°06'0 0.0
2016-Feb-05 20:34N 50°49' W 001°06'0 0.0
2016-Feb-05 19:33N 50°49' W 001°06'0 0.0
2016-Feb-05 18:34N 50°49' W 001°06'0 0.0
2016-Feb-05 17:33N 50°49' W 001°06'0 0.0
2016-Feb-05 16:33N 50°49' W 001°06'1110.8
2016-Feb-05 15:34N 50°40' W 000°56'5618.8
2016-Feb-05 12:33N 49°49' W 000°16'1919.1
2016-Feb-05 11:33N 49°33' W 000°01'6 6.4
2016-Feb-05 10:33N 49°29' E 000°07'0 0.0
2016-Feb-05 09:33N 49°29' E 000°07'0 0.0
2016-Feb-05 08:33N 49°29' E 000°07'0 0.0
2016-Feb-05 07:33N 49°29' E 000°07'9 8.9
2016-Feb-05 06:34N 49°35' W 000°03'1515.5
2016-Feb-05 05:34N 49°50' W 000°11'4613.4
2016-Feb-05 02:08N 50°30' W 000°48'814.1
2016-Feb-05 01:33N 50°37' W 000°54'1313.2
2016-Feb-05 00:33N 50°47' W 001°06'2 1.6
2016-Feb-04 23:33N 50°49' W 001°06'0 0.0
2016-Feb-04 22:33N 50°49' W 001°06'0 0.0
2016-Feb-04 21:33N 50°49' W 001°06'1110.7
2016-Feb-04 20:33N 50°40' W 000°56'6020.0
2016-Feb-04 17:33N 49°47' W 000°13'2019.9
2016-Feb-04 16:34N 49°30' E 000°03'3 2.6
2016-Feb-04 15:34N 49°29' E 000°07'0 0.0
2016-Feb-04 14:34N 49°29' E 000°07'0 0.0
2016-Feb-04 13:34N 49°29' E 000°07'0 0.0
2016-Feb-04 12:34N 49°29' E 000°07'0 0.0
2016-Feb-04 11:34N 49°29' E 000°07'0 0.0
2016-Feb-04 10:34N 49°29' E 000°07'0 0.0
2016-Feb-04 09:33N 49°29' E 000°07'0 0.0
2016-Feb-04 08:33N 49°29' E 000°07'0 0.0
2016-Feb-04 07:34N 49°29' E 000°07'9 8.8
2016-Feb-04 06:33N 49°35' W 000°03'1414.2
2016-Feb-04 05:33N 49°48' W 000°13'4812.1
2016-Feb-04 01:33N 50°31' W 000°48'1313.0
2016-Feb-04 00:33N 50°42' W 000°58'8 8.2
2016-Feb-03 23:33N 50°49' W 001°06'0 0.0
2016-Feb-03 22:33N 50°49' W 001°06'0 0.1
2016-Feb-03 21:33N 50°49' W 001°06'1111.4
2016-Feb-03 20:34N 50°39' W 000°56'5020.9
2016-Feb-03 18:11N 49°55' W 000°20'1320.8
2016-Feb-03 17:33N 49°44' W 000°11'1818.4
2016-Feb-03 16:33N 49°29' E 000°06'0 0.3
2016-Feb-03 15:33N 49°29' E 000°07'0 0.0
2016-Feb-03 14:34N 49°29' E 000°07'0 0.0
2016-Feb-03 13:33N 49°29' E 000°07'0 0.0
2016-Feb-03 12:33N 49°29' E 000°07'0 0.0
2016-Feb-03 11:33N 49°29' E 000°07'0 0.0
2016-Feb-03 10:33N 49°29' E 000°07'0 0.0
2016-Feb-03 09:34N 49°29' E 000°07'0 0.0
2016-Feb-03 08:34N 49°29' E 000°07'0 0.0
2016-Feb-03 07:34N 49°29' E 000°07'9 8.7
2016-Feb-03 06:33N 49°35' W 000°03'1211.7
2016-Feb-03 05:33N 49°45' W 000°11'1110.5
2016-Feb-03 04:29N 49°56' W 000°18'4012.3
2016-Feb-03 01:15N 50°31' W 000°48'1014.3
2016-Feb-03 00:33N 50°39' W 000°56'1211.5
2016-Feb-02 23:34N 50°49' W 001°06'0 0.2
2016-Feb-02 22:33N 50°49' W 001°06'0 0.1
2016-Feb-02 21:33N 50°49' W 001°06'1110.7
2016-Feb-02 20:33N 50°40' W 000°56'4919.8
2016-Feb-02 18:05N 49°56' W 000°20'1120.2
2016-Feb-02 17:33N 49°47' W 000°13'2019.7
2016-Feb-02 16:34N 49°30' E 000°02'3 3.2
2016-Feb-02 15:33N 49°29' E 000°07'0 0.0
2016-Feb-02 14:33N 49°29' E 000°07'0 0.0
2016-Feb-02 13:33N 49°29' E 000°07'0 0.0
2016-Feb-02 12:33N 49°29' E 000°07'0 0.0
2016-Feb-02 11:33N 49°29' E 000°07'0 0.0
2016-Feb-02 10:33N 49°29' E 000°07'0 0.0
2016-Feb-02 09:33N 49°29' E 000°07'0 0.0
2016-Feb-02 08:33N 49°29' E 000°07'0 0.0
2016-Feb-02 07:33N 49°29' E 000°07'9 8.9
2016-Feb-02 06:33N 49°35' W 000°04'6515.1
2016-Feb-02 02:15N 50°26' W 001°05'913.3
2016-Feb-02 01:34N 50°36' W 001°07'9 8.5
2016-Feb-02 00:33N 50°44' W 001°04'5 5.0
2016-Feb-01 23:34N 50°49' W 001°06'0 0.0
2016-Feb-01 22:34N 50°49' W 001°06'0 0.1
2016-Feb-01 21:34N 50°49' W 001°06'1110.7
2016-Feb-01 20:34N 50°40' W 000°56'5819.5
2016-Feb-01 17:34N 49°48' W 000°14'2019.7
2016-Feb-01 16:34N 49°31' E 000°01'4 4.3
2016-Feb-01 15:34N 49°29' E 000°07'0 0.0
2016-Feb-01 14:33N 49°29' E 000°07'0 0.0
2016-Feb-01 13:33N 49°29' E 000°07'0 0.0
2016-Feb-01 12:34N 49°29' E 000°07'0 0.0
2016-Feb-01 11:34N 49°29' E 000°07'0 0.0
2016-Feb-01 10:33N 49°29' E 000°07'0 0.0
2016-Feb-01 09:33N 49°29' E 000°07'0 0.0
2016-Feb-01 08:33N 49°29' E 000°07'0 0.0
2016-Feb-01 07:33N 49°29' E 000°07'1110.5
2016-Feb-01 06:33N 49°32' W 000°09'1818.4
2016-Feb-01 05:33N 49°40' W 000°34'5513.6
2016-Feb-01 01:33N 50°31' W 001°06'1212.4
2016-Feb-01 00:33N 50°42' W 000°59'8 7.9
2016-Jan-31 23:33N 50°49' W 001°06'0 0.0
2016-Jan-31 22:33N 50°49' W 001°06'0 0.1
2016-Jan-31 21:33N 50°49' W 001°06'1111.5
2016-Jan-31 20:33N 50°39' W 000°56'4821.7
2016-Jan-31 18:22N 49°57' W 000°21'1822.1
2016-Jan-31 17:33N 49°41' W 000°09'1615.8
2016-Jan-31 16:33N 49°29' E 000°07'0 0.0
2016-Jan-31 15:34N 49°29' E 000°07'0 0.0
2016-Jan-31 14:33N 49°29' E 000°07'0 0.0
2016-Jan-31 13:33N 49°29' E 000°07'0 0.0
2016-Jan-31 12:34N 49°29' E 000°07'0 0.0
2016-Jan-31 11:34N 49°29' E 000°07'0 0.0
2016-Jan-31 10:33N 49°29' E 000°07'0 0.0
2016-Jan-31 09:34N 49°29' E 000°07'0 0.0
2016-Jan-31 08:34N 49°29' E 000°07'0 0.0
2016-Jan-31 07:34N 49°29' E 000°07'9 8.7
2016-Jan-31 06:33N 49°35' W 000°03'1110.4
2016-Jan-31 05:33N 49°45' W 000°10'5011.7
2016-Jan-31 01:17N 50°28' W 000°47'1114.7
2016-Jan-31 00:34N 50°38' W 000°55'1212.4
2016-Jan-30 23:34N 50°48' W 001°07'1 1.1
2016-Jan-30 22:34N 50°49' W 001°06'1 0.9
2016-Jan-30 21:34N 50°48' W 001°07'1414.3
2016-Jan-30 20:33N 50°37' W 000°53'4321.6
2016-Jan-30 18:33N 49°58' W 000°22'2221.7
2016-Jan-30 17:33N 49°39' W 000°08'1313.4
2016-Jan-30 16:33N 49°29' E 000°07'0 0.0
2016-Jan-30 15:34N 49°29' E 000°07'0 0.0
2016-Jan-30 14:34N 49°29' E 000°07'0 0.0
2016-Jan-30 13:34N 49°29' E 000°07'0 0.0
2016-Jan-30 12:34N 49°29' E 000°07'0 0.0
2016-Jan-30 11:34N 49°29' E 000°07'0 0.0
2016-Jan-30 10:33N 49°29' E 000°07'0 0.0
2016-Jan-30 09:34N 49°29' E 000°07'0 0.0
2016-Jan-30 08:33N 49°29' E 000°07'0 0.0
2016-Jan-30 07:33N 49°29' E 000°07'1010.5
2016-Jan-30 06:34N 49°32' W 000°09'1313.5
2016-Jan-30 05:33N 49°35' W 000°29'5913.7
2016-Jan-30 01:16N 50°28' W 001°06'1014.1
2016-Jan-30 00:33N 50°38' W 001°03'8 8.3
2016-Jan-29 23:33N 50°46' W 001°05'2 2.4
2016-Jan-29 22:33N 50°49' W 001°06'0 0.0
2016-Jan-29 21:33N 50°49' W 001°06'0 0.0
2016-Jan-29 20:34N 50°49' W 001°06'0 0.0
2016-Jan-29 19:33N 50°49' W 001°06'0 0.0
2016-Jan-29 18:33N 50°49' W 001°06'0 0.0
2016-Jan-29 17:33N 50°49' W 001°06'0 0.1
2016-Jan-29 16:33N 50°49' W 001°06'  
Track history (hours):
 
Tides and Currents Weather Stations Pressure Air Temp Water Temp Dewpoint Dewpoint Depression Visibility Wind Speed Wind Dir Waves Ship Positions

Etretat

Last reported at 2016-Feb-08 16:33 UTC. Time now 2016-Feb-08 17:02 UTC.
Position N 49°29' E 000°07'.

Length 187 m; draft 6 m.

Type: Passenger vessel. MMSI: 228022900.

Date/timePositionNaut miles runAvg speedWind from/ knotsBaromVisibWave heightAir tempDewpointWater temp
2016-Feb-08 16:33N 49°29' E 000°07'0 0.0
2016-Feb-08 15:33N 49°29' E 000°07'0 0.0
2016-Feb-08 14:33N 49°29' E 000°07'0 0.0
2016-Feb-08 13:34N 49°29' E 000°07'0 0.0
2016-Feb-08 12:33N 49°29' E 000°07'0 0.0
2016-Feb-08 11:34N 49°29' E 000°07'0 0.0
2016-Feb-08 10:33N 49°29' E 000°07'0 0.0
2016-Feb-08 09:33N 49°29' E 000°07'0 0.0
2016-Feb-08 08:33N 49°29' E 000°07'0 0.0
2016-Feb-08 07:34N 49°29' E 000°07'8 8.3
2016-Feb-08 06:34N 49°35' W 000°03'1313.2
2016-Feb-08 05:34N 49°46' W 000°14'5713.6
2016-Feb-08 01:24N 50°30' W 001°10'1012.4
2016-Feb-08 00:34N 50°39' W 001°03'10 9.9
2016-Feb-07 23:33N 50°49' W 001°06'0 0.0
2016-Feb-07 22:33N 50°49' W 001°06'0 0.1
2016-Feb-07 21:34N 50°49' W 001°06'1010.2
2016-Feb-07 20:34N 50°40' W 000°57'6320.1
2016-Feb-07 17:26N 49°41' W 000°24'1820.9
2016-Feb-07 16:34N 49°30' W 000°01'5 5.4
2016-Feb-07 15:33N 49°29' E 000°07'0 0.0
2016-Feb-07 14:33N 49°29' E 000°07'0 0.0
2016-Feb-07 13:33N 49°29' E 000°07'0 0.0
2016-Feb-07 12:33N 49°29' E 000°07'0 0.0
2016-Feb-07 11:33N 49°29' E 000°07'0 0.0
2016-Feb-07 10:33N 49°29' E 000°07'0 0.0
2016-Feb-07 09:33N 49°29' E 000°07'0 0.0
2016-Feb-07 08:33N 49°29' E 000°07'0 0.0
2016-Feb-07 07:33N 49°29' E 000°07'7 7.2
2016-Feb-07 06:33N 49°34' W 000°02'1413.6
2016-Feb-07 05:33N 49°45' W 000°13'5211.7
2016-Feb-07 01:07N 50°26' W 001°03'713.3
2016-Feb-07 00:34N 50°33' W 001°08'1211.7
2016-Feb-06 23:33N 50°44' W 001°05'4 4.2
2016-Feb-06 22:33N 50°49' W 001°06'0 0.0
2016-Feb-06 21:33N 50°49' W 001°06'1010.4
2016-Feb-06 20:33N 50°40' W 000°56'5718.9
2016-Feb-06 17:33N 49°50' W 000°14'2121.5
2016-Feb-06 16:33N 49°31' E 000°01'4 4.3
2016-Feb-06 15:33N 49°29' E 000°07'0 0.0
2016-Feb-06 14:33N 49°29' E 000°07'0 0.0
2016-Feb-06 13:33N 49°29' E 000°07'0 0.0
2016-Feb-06 12:33N 49°29' E 000°07'0 0.0
2016-Feb-06 11:33N 49°29' E 000°07'0 0.0
2016-Feb-06 10:33N 49°29' E 000°07'0 0.0
2016-Feb-06 09:33N 49°29' E 000°07'0 0.0
2016-Feb-06 08:33N 49°29' E 000°07'0 0.0
2016-Feb-06 07:33N 49°29' E 000°07'9 8.8
2016-Feb-06 06:34N 49°35' W 000°03'1212.4
2016-Feb-06 05:33N 49°46' W 000°13'4710.9
2016-Feb-06 01:11N 50°28' W 000°46'812.7
2016-Feb-06 00:33N 50°35' W 000°52'1212.5
2016-Feb-05 23:34N 50°45' W 001°05'4 4.0
2016-Feb-05 22:33N 50°49' W 001°06'0 0.0
2016-Feb-05 21:33N 50°49' W 001°06'0 0.0
2016-Feb-05 20:34N 50°49' W 001°06'0 0.0
2016-Feb-05 19:33N 50°49' W 001°06'0 0.0
2016-Feb-05 18:34N 50°49' W 001°06'0 0.0
2016-Feb-05 17:33N 50°49' W 001°06'0 0.0
2016-Feb-05 16:33N 50°49' W 001°06'1110.8
2016-Feb-05 15:34N 50°40' W 000°56'5618.8
2016-Feb-05 12:33N 49°49' W 000°16'1919.1
2016-Feb-05 11:33N 49°33' W 000°01'6 6.4
2016-Feb-05 10:33N 49°29' E 000°07'0 0.0
2016-Feb-05 09:33N 49°29' E 000°07'0 0.0
2016-Feb-05 08:33N 49°29' E 000°07'0 0.0
2016-Feb-05 07:33N 49°29' E 000°07'9 8.9
2016-Feb-05 06:34N 49°35' W 000°03'1515.5
2016-Feb-05 05:34N 49°50' W 000°11'4613.4
2016-Feb-05 02:08N 50°30' W 000°48'814.1
2016-Feb-05 01:33N 50°37' W 000°54'1313.2
2016-Feb-05 00:33N 50°47' W 001°06'2 1.6
2016-Feb-04 23:33N 50°49' W 001°06'0 0.0
2016-Feb-04 22:33N 50°49' W 001°06'0 0.0
2016-Feb-04 21:33N 50°49' W 001°06'1110.7
2016-Feb-04 20:33N 50°40' W 000°56'6020.0
2016-Feb-04 17:33N 49°47' W 000°13'2019.9
2016-Feb-04 16:34N 49°30' E 000°03'3 2.6
2016-Feb-04 15:34N 49°29' E 000°07'0 0.0
2016-Feb-04 14:34N 49°29' E 000°07'0 0.0
2016-Feb-04 13:34N 49°29' E 000°07'0 0.0
2016-Feb-04 12:34N 49°29' E 000°07'0 0.0
2016-Feb-04 11:34N 49°29' E 000°07'0 0.0
2016-Feb-04 10:34N 49°29' E 000°07'0 0.0
2016-Feb-04 09:33N 49°29' E 000°07'0 0.0
2016-Feb-04 08:33N 49°29' E 000°07'0 0.0
2016-Feb-04 07:34N 49°29' E 000°07'9 8.8
2016-Feb-04 06:33N 49°35' W 000°03'1414.2
2016-Feb-04 05:33N 49°48' W 000°13'4812.1
2016-Feb-04 01:33N 50°31' W 000°48'1313.0
2016-Feb-04 00:33N 50°42' W 000°58'8 8.2
2016-Feb-03 23:33N 50°49' W 001°06'0 0.0
2016-Feb-03 22:33N 50°49' W 001°06'0 0.1
2016-Feb-03 21:33N 50°49' W 001°06'1111.4
2016-Feb-03 20:34N 50°39' W 000°56'5020.9
2016-Feb-03 18:11N 49°55' W 000°20'1320.8
2016-Feb-03 17:33N 49°44' W 000°11'1818.4
2016-Feb-03 16:33N 49°29' E 000°06'0 0.3
2016-Feb-03 15:33N 49°29' E 000°07'0 0.0
2016-Feb-03 14:34N 49°29' E 000°07'0 0.0
2016-Feb-03 13:33N 49°29' E 000°07'0 0.0
2016-Feb-03 12:33N 49°29' E 000°07'0 0.0
2016-Feb-03 11:33N 49°29' E 000°07'0 0.0
2016-Feb-03 10:33N 49°29' E 000°07'0 0.0
2016-Feb-03 09:34N 49°29' E 000°07'0 0.0
2016-Feb-03 08:34N 49°29' E 000°07'0 0.0
2016-Feb-03 07:34N 49°29' E 000°07'9 8.7
2016-Feb-03 06:33N 49°35' W 000°03'1211.7
2016-Feb-03 05:33N 49°45' W 000°11'1110.5
2016-Feb-03 04:29N 49°56' W 000°18'4012.3
2016-Feb-03 01:15N 50°31' W 000°48'1014.3
2016-Feb-03 00:33N 50°39' W 000°56'1211.5
2016-Feb-02 23:34N 50°49' W 001°06'0 0.2
2016-Feb-02 22:33N 50°49' W 001°06'0 0.1
2016-Feb-02 21:33N 50°49' W 001°06'1110.7
2016-Feb-02 20:33N 50°40' W 000°56'4919.8
2016-Feb-02 18:05N 49°56' W 000°20'1120.2
2016-Feb-02 17:33N 49°47' W 000°13'2019.7
2016-Feb-02 16:34N 49°30' E 000°02'3 3.2
2016-Feb-02 15:33N 49°29' E 000°07'0 0.0
2016-Feb-02 14:33N 49°29' E 000°07'0 0.0
2016-Feb-02 13:33N 49°29' E 000°07'0 0.0
2016-Feb-02 12:33N 49°29' E 000°07'0 0.0
2016-Feb-02 11:33N 49°29' E 000°07'0 0.0
2016-Feb-02 10:33N 49°29' E 000°07'0 0.0
2016-Feb-02 09:33N 49°29' E 000°07'0 0.0
2016-Feb-02 08:33N 49°29' E 000°07'0 0.0
2016-Feb-02 07:33N 49°29' E 000°07'9 8.9
2016-Feb-02 06:33N 49°35' W 000°04'6515.1
2016-Feb-02 02:15N 50°26' W 001°05'913.3
2016-Feb-02 01:34N 50°36' W 001°07'9 8.5
2016-Feb-02 00:33N 50°44' W 001°04'5 5.0
2016-Feb-01 23:34N 50°49' W 001°06'0 0.0
2016-Feb-01 22:34N 50°49' W 001°06'0 0.1
2016-Feb-01 21:34N 50°49' W 001°06'1110.7
2016-Feb-01 20:34N 50°40' W 000°56'5819.5
2016-Feb-01 17:34N 49°48' W 000°14'2019.7
2016-Feb-01 16:34N 49°31' E 000°01'4 4.3
2016-Feb-01 15:34N 49°29' E 000°07'0 0.0
2016-Feb-01 14:33N 49°29' E 000°07'0 0.0
2016-Feb-01 13:33N 49°29' E 000°07'0 0.0
2016-Feb-01 12:34N 49°29' E 000°07'0 0.0
2016-Feb-01 11:34N 49°29' E 000°07'0 0.0
2016-Feb-01 10:33N 49°29' E 000°07'0 0.0
2016-Feb-01 09:33N 49°29' E 000°07'0 0.0
2016-Feb-01 08:33N 49°29' E 000°07'0 0.0
2016-Feb-01 07:33N 49°29' E 000°07'1110.5
2016-Feb-01 06:33N 49°32' W 000°09'1818.4
2016-Feb-01 05:33N 49°40' W 000°34'5513.6
2016-Feb-01 01:33N 50°31' W 001°06'1212.4
2016-Feb-01 00:33N 50°42' W 000°59'8 7.9
2016-Jan-31 23:33N 50°49' W 001°06'0 0.0
2016-Jan-31 22:33N 50°49' W 001°06'0 0.1
2016-Jan-31 21:33N 50°49' W 001°06'1111.5
2016-Jan-31 20:33N 50°39' W 000°56'4821.7
2016-Jan-31 18:22N 49°57' W 000°21'1822.1
2016-Jan-31 17:33N 49°41' W 000°09'1615.8
2016-Jan-31 16:33N 49°29' E 000°07'0 0.0
2016-Jan-31 15:34N 49°29' E 000°07'0 0.0
2016-Jan-31 14:33N 49°29' E 000°07'0 0.0
2016-Jan-31 13:33N 49°29' E 000°07'0 0.0
2016-Jan-31 12:34N 49°29' E 000°07'0 0.0
2016-Jan-31 11:34N 49°29' E 000°07'0 0.0
2016-Jan-31 10:33N 49°29' E 000°07'0 0.0
2016-Jan-31 09:34N 49°29' E 000°07'0 0.0
2016-Jan-31 08:34N 49°29' E 000°07'0 0.0
2016-Jan-31 07:34N 49°29' E 000°07'9 8.7
2016-Jan-31 06:33N 49°35' W 000°03'1110.4
2016-Jan-31 05:33N 49°45' W 000°10'5011.7
2016-Jan-31 01:17N 50°28' W 000°47'1114.7
2016-Jan-31 00:34N 50°38' W 000°55'1212.4
2016-Jan-30 23:34N 50°48' W 001°07'1 1.1
2016-Jan-30 22:34N 50°49' W 001°06'1 0.9
2016-Jan-30 21:34N 50°48' W 001°07'1414.3
2016-Jan-30 20:33N 50°37' W 000°53'4321.6
2016-Jan-30 18:33N 49°58' W 000°22'2221.7
2016-Jan-30 17:33N 49°39' W 000°08'1313.4
2016-Jan-30 16:33N 49°29' E 000°07'0 0.0
2016-Jan-30 15:34N 49°29' E 000°07'0 0.0
2016-Jan-30 14:34N 49°29' E 000°07'0 0.0
2016-Jan-30 13:34N 49°29' E 000°07'0 0.0
2016-Jan-30 12:34N 49°29' E 000°07'0 0.0
2016-Jan-30 11:34N 49°29' E 000°07'0 0.0
2016-Jan-30 10:33N 49°29' E 000°07'0 0.0
2016-Jan-30 09:34N 49°29' E 000°07'0 0.0
2016-Jan-30 08:33N 49°29' E 000°07'0 0.0
2016-Jan-30 07:33N 49°29' E 000°07'1010.5
2016-Jan-30 06:34N 49°32' W 000°09'1313.5
2016-Jan-30 05:33N 49°35' W 000°29'5913.7
2016-Jan-30 01:16N 50°28' W 001°06'1014.1
2016-Jan-30 00:33N 50°38' W 001°03'8 8.3
2016-Jan-29 23:33N 50°46' W 001°05'2 2.4
2016-Jan-29 22:33N 50°49' W 001°06'0 0.0
2016-Jan-29 21:33N 50°49' W 001°06'0 0.0
2016-Jan-29 20:34N 50°49' W 001°06'0 0.0
2016-Jan-29 19:33N 50°49' W 001°06'0 0.0
2016-Jan-29 18:33N 50°49' W 001°06'0 0.0
2016-Jan-29 17:33N 50°49' W 001°06'0 0.1
2016-Jan-29 16:33N 50°49' W 001°06'  

Dump ship's entire track history